Terminal Aerodrome Forecast
Issued by NWS

Home | Current Version | Previous Version | Text Only | Print | Product List | Glossary On
Versions: 1 2 3 4 5 6 7 8 9 10 11 12 13 14 15 16
000
FTUS43 KDVN 122100 AAA
TAFBRL
TAF AMD
KBRL 122130Z 1222/1318 21010G18KT P6SM SCT040
     FM122300 23009KT P6SM SCT040
      TEMPO 1301/1304 3SM TSRA BKN035CB
     FM130600 32006KT P6SM BKN035=

USA.gov is the U.S. government's official web portal to all federal, state and local government web resources and services.